createdAt,value
2019-04-21T00:01:05.741Z,41.50
2019-04-21T00:03:41.067Z,35.98
2019-04-21T00:06:25.061Z,34.03
2019-04-21T00:08:56.478Z,37.70
2019-04-21T00:11:30.022Z,29.00
2019-04-21T00:13:52.659Z,23.62
2019-04-21T00:16:12.609Z,25.88
2019-04-21T00:18:57.524Z,21.97
2019-04-21T00:21:29.233Z,21.02
2019-04-21T00:24:20.301Z,26.57
2019-04-21T00:26:58.980Z,24.15
2019-04-21T00:29:35.392Z,20.50
2019-04-21T00:31:58.828Z,23.85
2019-04-21T00:34:13.342Z,25.23
2019-04-21T00:36:53.491Z,26.47
2019-04-21T00:39:43.354Z,24.57
2019-04-21T00:42:08.889Z,21.97
2019-04-21T00:44:28.415Z,26.30
2019-04-21T00:47:01.801Z,29.55
2019-04-21T00:49:33.074Z,32.93
2019-04-21T00:52:43.324Z,32.28
2019-04-21T00:55:18.752Z,26.93
2019-04-21T00:57:43.138Z,26.40
2019-04-21T01:00:10.635Z,29.35
2019-04-21T01:02:45.530Z,23.30
2019-04-21T01:05:15.183Z,23.77
2019-04-21T01:07:42.956Z,24.67
2019-04-21T01:10:06.491Z,27.98
2019-04-21T01:12:41.945Z,22.65
2019-04-21T01:15:19.206Z,30.25
2019-04-21T01:17:48.090Z,22.50
2019-04-21T01:20:12.177Z,26.15
2019-04-21T01:22:26.008Z,27.07
2019-04-21T01:25:04.681Z,28.38
2019-04-21T01:27:49.462Z,26.12
2019-04-21T01:30:18.902Z,31.90
2019-04-21T01:33:05.444Z,38.55
2019-04-21T01:35:34.343Z,37.13
2019-04-21T01:38:04.983Z,34.50
2019-04-21T01:40:33.840Z,34.58
2019-04-21T01:43:05.645Z,37.35
2019-04-21T01:45:40.043Z,33.15
2019-04-21T01:48:05.804Z,36.98
2019-04-21T01:50:41.146Z,33.45
2019-04-21T01:53:30.674Z,53.70
2019-04-21T01:56:16.911Z,73.90
2019-04-21T01:58:41.223Z,58.87
2019-04-21T02:01:15.605Z,39.63
2019-04-21T02:04:14.122Z,35.75
2019-04-21T02:06:44.398Z,34.00
2019-04-21T02:09:14.924Z,30.80
2019-04-21T02:11:50.481Z,30.60
2019-04-21T02:14:29.866Z,38.33
2019-04-21T02:16:49.563Z,26.97
2019-04-21T02:19:19.914Z,30.75
2019-04-21T02:21:44.924Z,31.07
2019-04-21T02:24:31.652Z,24.23
2019-04-21T02:26:57.321Z,33.20
2019-04-21T02:29:29.546Z,42.17
2019-04-21T02:34:41.435Z,43.42
2019-04-21T02:39:43.388Z,36.13
2019-04-21T02:44:44.722Z,30.80
2019-04-21T02:47:21.697Z,26.48
2019-04-21T02:49:56.875Z,29.12
2019-04-21T02:52:29.180Z,27.17
2019-04-21T02:57:18.535Z,25.48
2019-04-21T02:59:58.938Z,26.95
2019-04-21T03:02:42.995Z,52.25
2019-04-21T03:05:25.684Z,46.88
2019-04-21T03:07:52.695Z,48.10
2019-04-21T03:10:20.683Z,40.15
2019-04-21T03:17:49.847Z,33.13
2019-04-21T03:20:27.406Z,33.33
2019-04-21T03:22:53.502Z,34.45
2019-04-21T03:25:41.724Z,43.92
2019-04-21T03:27:56.854Z,43.75
2019-04-21T03:30:42.762Z,31.65
2019-04-21T03:33:23.850Z,30.55
2019-04-21T03:38:00.190Z,30.25
2019-04-21T03:42:57.012Z,30.50
2019-04-21T03:45:32.701Z,25.43
2019-04-21T03:48:04.744Z,31.17
2019-04-21T03:53:06.832Z,27.70
2019-04-21T04:01:02.398Z,29.57
2019-04-21T04:03:52.112Z,32.48
2019-04-21T04:13:58.115Z,34.27
2019-04-21T04:18:53.142Z,27.20
2019-04-21T04:21:30.269Z,31.07
2019-04-21T04:26:36.302Z,31.00
2019-04-21T04:29:03.441Z,37.30
2019-04-21T04:34:04.464Z,30.02
2019-04-21T04:36:43.389Z,30.48
2019-04-21T04:39:41.293Z,33.88
2019-04-21T04:47:22.744Z,27.85
2019-04-21T04:50:10.281Z,37.38
2019-04-21T04:55:03.504Z,31.70
2019-04-21T05:00:14.279Z,30.72
2019-04-21T05:02:52.320Z,30.57
2019-04-21T05:05:17.308Z,31.20
2019-04-21T05:10:07.553Z,29.25
2019-04-21T05:12:38.838Z,34.55
2019-04-21T05:15:07.743Z,30.17
2019-04-21T05:20:11.786Z,29.15
2019-04-21T05:22:35.529Z,36.20
2019-04-21T05:25:03.439Z,28.45
2019-04-21T05:27:33.567Z,28.77
2019-04-21T05:30:17.799Z,28.65
2019-04-21T05:32:48.757Z,32.45
2019-04-21T05:35:22.831Z,30.20
2019-04-21T05:38:02.012Z,32.55
2019-04-21T05:40:27.428Z,29.70
2019-04-21T05:43:04.409Z,31.27
2019-04-21T05:45:33.545Z,28.60
2019-04-21T05:48:19.209Z,30.17
2019-04-21T05:50:36.473Z,24.10
2019-04-21T05:53:17.751Z,26.00
2019-04-21T05:55:44.551Z,22.50
2019-04-21T05:58:08.480Z,27.95
2019-04-21T06:03:15.754Z,18.35
2019-04-21T06:06:00.274Z,22.42
2019-04-21T06:08:23.496Z,16.30
2019-04-21T06:10:52.305Z,16.80
2019-04-21T06:13:26.814Z,17.50
2019-04-21T06:15:56.243Z,17.90
2019-04-21T06:18:35.410Z,17.25
2019-04-21T06:20:59.793Z,19.85
2019-04-21T06:23:30.060Z,20.57
2019-04-21T06:26:12.182Z,18.07
2019-04-21T06:28:33.625Z,20.25
2019-04-21T06:31:42.404Z,17.80
2019-04-21T06:33:50.677Z,19.05
2019-04-21T06:36:36.275Z,16.48
2019-04-21T06:39:11.665Z,17.10
2019-04-21T06:44:07.657Z,16.77
2019-04-21T06:46:35.365Z,18.37
2019-04-21T06:49:02.854Z,19.70
2019-04-21T06:51:38.634Z,14.63
2019-04-21T06:54:10.246Z,19.20
2019-04-21T06:56:42.338Z,15.00
2019-04-21T06:59:21.714Z,15.75
2019-04-21T07:01:42.172Z,16.32
2019-04-21T07:04:19.715Z,19.82
2019-04-21T07:11:44.495Z,16.93
2019-04-21T07:16:53.129Z,12.15
2019-04-21T07:19:30.674Z,15.00
2019-04-21T07:22:04.785Z,12.53
2019-04-21T07:24:30.413Z,15.15
2019-04-21T07:29:23.979Z,15.23
2019-04-21T07:31:58.732Z,13.20
2019-04-21T07:34:27.088Z,15.40
2019-04-21T07:36:54.892Z,14.83
2019-04-21T07:39:45.045Z,13.93
2019-04-21T07:42:13.404Z,17.45
2019-04-21T07:44:44.805Z,19.05
2019-04-21T07:47:15.563Z,20.25
2019-04-21T07:49:56.555Z,16.73
2019-04-21T07:52:35.078Z,21.42
2019-04-21T07:55:19.762Z,20.72
2019-04-21T07:57:33.078Z,19.30
2019-04-21T08:00:20.995Z,20.48
2019-04-21T08:02:34.092Z,18.90
2019-04-21T08:05:13.090Z,25.62
2019-04-21T08:07:48.035Z,21.00
2019-04-21T08:10:11.179Z,19.70
2019-04-21T08:12:36.402Z,17.50
2019-04-21T08:15:34.863Z,20.20
2019-04-21T08:17:45.720Z,18.32
2019-04-21T08:20:14.311Z,22.00
2019-04-21T08:25:16.557Z,19.32
2019-04-21T08:30:21.463Z,15.75
2019-04-21T08:35:50.942Z,16.90
2019-04-21T08:37:48.516Z,17.85
2019-04-21T08:40:33.099Z,20.00
2019-04-21T08:42:55.254Z,14.55
2019-04-21T08:45:29.422Z,16.20
2019-04-21T08:47:58.230Z,14.05
2019-04-21T08:50:25.377Z,17.23
2019-04-21T08:53:01.751Z,12.73
2019-04-21T08:55:48.985Z,16.60
2019-04-21T08:58:22.694Z,14.00
2019-04-21T09:00:56.254Z,14.10
2019-04-21T09:03:43.027Z,12.95
2019-04-21T09:06:13.812Z,14.73
2019-04-21T09:08:41.680Z,15.03
2019-04-21T09:11:12.850Z,14.83
2019-04-21T09:13:41.104Z,14.25
2019-04-21T09:16:08.499Z,12.40
2019-04-21T09:18:42.048Z,13.90
2019-04-21T09:21:21.872Z,12.47
2019-04-21T09:23:45.335Z,15.08
2019-04-21T09:26:18.786Z,13.60
2019-04-21T09:28:45.031Z,13.68
2019-04-21T09:31:05.299Z,13.22
2019-04-21T09:33:39.095Z,13.00
2019-04-21T09:36:09.699Z,12.55
2019-04-21T09:38:41.504Z,13.20
2019-04-21T09:41:15.933Z,12.10
2019-04-21T09:43:45.329Z,14.10
2019-04-21T09:46:09.530Z,12.18
2019-04-21T09:48:49.594Z,12.53
2019-04-21T09:51:30.581Z,13.90
2019-04-21T09:54:05.794Z,13.90
2019-04-21T09:56:40.535Z,13.70
2019-04-21T09:59:11.409Z,14.05
2019-04-21T10:01:49.137Z,13.85
2019-04-21T10:04:05.683Z,15.10
2019-04-21T10:06:35.375Z,12.35
2019-04-21T10:09:10.266Z,12.23
2019-04-21T10:11:38.341Z,13.10
2019-04-21T10:14:07.734Z,13.08
2019-04-21T10:19:11.014Z,11.22
2019-04-21T10:21:42.369Z,10.88
2019-04-21T10:24:12.524Z,10.90
2019-04-21T10:26:43.093Z,12.95
2019-04-21T10:29:19.690Z,10.60
2019-04-21T10:31:44.865Z,10.25
2019-04-21T10:34:14.485Z,15.18
2019-04-21T10:36:44.858Z,10.60
2019-04-21T10:41:43.531Z,10.78
2019-04-21T10:44:13.537Z,13.70
2019-04-21T10:46:45.735Z,11.35
2019-04-21T10:49:14.805Z,11.55
2019-04-21T10:51:44.319Z,10.70
2019-04-21T10:54:13.736Z,10.55
2019-04-21T10:56:44.457Z,11.93
2019-04-21T10:59:14.378Z,11.00
2019-04-21T11:01:45.178Z,13.85
2019-04-21T11:04:21.894Z,11.83
2019-04-21T11:06:48.541Z,11.00
2019-04-21T11:09:18.090Z,11.38
2019-04-21T11:11:49.895Z,10.08
2019-04-21T11:14:18.993Z,9.68
2019-04-21T11:16:49.761Z,10.10
2019-04-21T11:19:20.066Z,9.35
2019-04-21T11:21:49.554Z,8.50
2019-04-21T11:24:18.914Z,9.50
2019-04-21T11:26:49.733Z,8.85
2019-04-21T11:29:19.460Z,7.28
2019-04-21T11:31:49.322Z,11.07
2019-04-21T11:34:18.879Z,9.13
2019-04-21T11:36:48.227Z,8.98
2019-04-21T11:39:33.479Z,7.53
2019-04-21T11:41:57.647Z,8.53
2019-04-21T11:44:27.112Z,10.38
2019-04-21T11:46:56.533Z,10.88
2019-04-21T11:49:27.650Z,6.67
2019-04-21T11:51:56.971Z,9.10
2019-04-21T11:54:26.738Z,8.83
2019-04-21T11:56:56.930Z,7.85
2019-04-21T11:59:27.878Z,10.88
2019-04-21T12:01:57.492Z,8.28
2019-04-21T12:04:27.511Z,7.35
2019-04-21T12:06:57.892Z,8.68
2019-04-21T12:09:29.319Z,7.92
2019-04-21T12:11:59.084Z,13.10
2019-04-21T12:14:30.150Z,8.78
2019-04-21T12:16:59.788Z,9.13
2019-04-21T12:19:30.476Z,9.13
2019-04-21T12:22:10.078Z,8.18
2019-04-21T12:24:33.420Z,7.67
2019-04-21T12:27:04.100Z,10.55
2019-04-21T12:29:35.563Z,9.98
2019-04-21T12:32:42.721Z,10.80
2019-04-21T12:35:13.955Z,11.20
2019-04-21T12:37:44.721Z,9.35
2019-04-21T12:40:14.799Z,9.78
2019-04-21T12:45:15.234Z,8.75
2019-04-21T12:47:47.338Z,8.93
2019-04-21T12:50:17.031Z,9.78
2019-04-21T12:52:47.441Z,6.87
2019-04-21T12:55:17.674Z,8.60
2019-04-21T12:57:47.673Z,7.97
2019-04-21T13:00:20.753Z,9.23
2019-04-21T13:02:50.286Z,8.18
2019-04-21T13:05:19.943Z,6.75
2019-04-21T13:07:49.515Z,8.53
2019-04-21T13:10:20.095Z,11.43
2019-04-21T13:12:50.061Z,8.88
2019-04-21T13:15:19.934Z,7.65
2019-04-21T13:17:50.257Z,8.40
2019-04-21T13:20:21.062Z,6.30
2019-04-21T13:22:50.515Z,6.60
2019-04-21T13:25:20.116Z,8.00
2019-04-21T13:27:50.654Z,7.42
2019-04-21T13:30:20.174Z,6.53
2019-04-21T13:32:51.263Z,8.35
2019-04-21T13:35:21.202Z,8.78
2019-04-21T13:37:52.241Z,11.57
2019-04-21T13:40:56.856Z,7.15
2019-04-21T13:43:12.732Z,9.38
2019-04-21T13:45:43.528Z,8.00
2019-04-21T13:48:12.967Z,8.20
2019-04-21T13:50:43.642Z,12.70
2019-04-21T13:53:14.516Z,9.70
2019-04-21T13:55:44.650Z,6.12
2019-04-21T13:58:14.591Z,6.67
2019-04-21T14:00:45.455Z,8.15
2019-04-21T14:03:16.377Z,8.20
2019-04-21T14:05:46.528Z,9.40
2019-04-21T14:08:16.216Z,7.90
2019-04-21T14:10:45.596Z,7.45
2019-04-21T14:13:16.354Z,13.13
2019-04-21T14:15:48.230Z,7.20
2019-04-21T14:18:18.508Z,10.90
2019-04-21T14:20:49.135Z,6.45
2019-04-21T14:23:29.917Z,7.97
2019-04-21T14:25:50.103Z,8.68
2019-04-21T14:28:21.957Z,8.08
2019-04-21T14:30:52.576Z,10.45
2019-04-21T14:33:23.494Z,11.18
2019-04-21T14:35:54.652Z,8.43
2019-04-21T14:38:24.924Z,8.75
2019-04-21T14:40:54.457Z,10.30
2019-04-21T14:43:23.971Z,9.55
2019-04-21T14:45:58.628Z,9.13
2019-04-21T14:48:30.098Z,9.33
2019-04-21T14:51:07.138Z,8.38
2019-04-21T14:53:47.813Z,8.73
2019-04-21T14:56:17.503Z,11.08
2019-04-21T14:58:48.794Z,10.05
2019-04-21T15:01:18.256Z,7.15
2019-04-21T15:03:47.918Z,8.65
2019-04-21T15:06:17.412Z,7.95
2019-04-21T15:08:47.092Z,6.28
2019-04-21T15:11:17.972Z,6.30
2019-04-21T15:13:48.086Z,6.35
2019-04-21T15:16:18.708Z,5.37
2019-04-21T15:18:48.599Z,6.42
2019-04-21T15:21:19.176Z,7.83
2019-04-21T15:23:48.805Z,7.20
2019-04-21T15:26:18.200Z,9.60
2019-04-21T15:28:48.851Z,11.25
2019-04-21T15:31:23.884Z,8.73
2019-04-21T15:33:49.622Z,10.98
2019-04-21T15:36:19.103Z,7.17
2019-04-21T15:38:49.627Z,8.88
2019-04-21T15:41:20.440Z,9.00
2019-04-21T15:43:50.813Z,11.05
2019-04-21T15:46:20.538Z,9.25
2019-04-21T15:48:51.001Z,10.15
2019-04-21T15:51:21.654Z,8.03
2019-04-21T15:53:52.003Z,6.22
2019-04-21T15:56:31.039Z,8.05
2019-04-21T15:59:02.231Z,12.60
2019-04-21T16:01:52.530Z,13.15
2019-04-21T16:04:22.986Z,9.43
2019-04-21T16:09:25.927Z,7.95
2019-04-21T16:11:53.767Z,9.53
2019-04-21T16:14:23.151Z,13.40
2019-04-21T16:16:53.671Z,12.80
2019-04-21T16:19:23.215Z,9.08
2019-04-21T16:21:52.891Z,10.23
2019-04-21T16:24:23.285Z,12.90
2019-04-21T16:26:53.945Z,10.00
2019-04-21T16:29:23.311Z,11.63
2019-04-21T16:31:53.290Z,28.10
2019-04-21T16:34:34.470Z,58.83
2019-04-21T16:36:53.953Z,29.20
2019-04-21T16:39:23.458Z,48.90
2019-04-21T16:41:54.073Z,19.55
2019-04-21T16:44:25.181Z,27.98
2019-04-21T16:46:55.708Z,14.40
2019-04-21T16:49:25.496Z,19.02
2019-04-21T16:52:12.543Z,16.07
2019-04-21T16:54:44.106Z,14.38
2019-04-21T16:57:19.619Z,14.25
2019-04-21T16:59:50.960Z,13.38
2019-04-21T17:02:20.635Z,13.30
2019-04-21T17:04:50.100Z,12.00
2019-04-21T17:07:20.034Z,14.85
2019-04-21T17:09:50.629Z,18.12
2019-04-21T17:12:22.741Z,19.77
2019-04-21T17:15:08.472Z,30.25
2019-04-21T17:17:45.863Z,15.95
2019-04-21T17:20:04.413Z,15.80
2019-04-21T17:22:25.755Z,11.97
2019-04-21T17:24:56.033Z,15.20
2019-04-21T17:27:27.075Z,51.08
2019-04-21T17:29:56.829Z,32.40
2019-04-21T17:32:32.113Z,26.33
2019-04-21T17:34:58.092Z,20.52
2019-04-21T17:37:30.571Z,18.73
2019-04-21T17:40:03.215Z,11.05
2019-04-21T17:42:39.768Z,11.50
2019-04-21T17:45:05.426Z,14.85
2019-04-21T17:47:44.902Z,22.58
2019-04-21T17:50:15.611Z,17.30
2019-04-21T17:52:55.630Z,31.60
2019-04-21T17:55:27.312Z,34.23
2019-04-21T17:58:09.356Z,49.18
2019-04-21T18:01:07.857Z,65.70
2019-04-21T18:03:27.086Z,68.40
2019-04-21T18:05:42.412Z,52.20
2019-04-21T18:08:19.063Z,39.55
2019-04-21T18:10:45.777Z,41.53
2019-04-21T18:13:07.814Z,54.63
2019-04-21T18:15:50.624Z,38.15
2019-04-21T18:18:02.963Z,52.60
2019-04-21T18:20:35.392Z,50.00
2019-04-21T18:23:34.893Z,41.20
2019-04-21T18:26:01.959Z,46.88
2019-04-21T18:28:26.314Z,59.80
2019-04-21T18:30:58.379Z,53.17
2019-04-21T18:33:33.276Z,45.48
2019-04-21T18:36:05.120Z,34.65
2019-04-21T18:39:10.358Z,54.95
2019-04-21T18:41:30.353Z,30.88
2019-04-21T18:44:46.222Z,45.00
2019-04-21T18:47:19.870Z,36.05
2019-04-21T18:49:29.122Z,22.15
2019-04-21T18:52:19.219Z,18.30
2019-04-21T18:54:54.950Z,28.42
2019-04-21T18:57:24.416Z,22.42
2019-04-21T18:59:45.539Z,12.93
2019-04-21T19:02:17.776Z,15.23
2019-04-21T19:04:46.314Z,14.83
2019-04-21T19:07:30.605Z,19.10
2019-04-21T19:10:20.594Z,16.12
2019-04-21T19:13:04.947Z,21.05
2019-04-21T19:15:04.323Z,23.90
2019-04-21T19:20:14.411Z,27.95
2019-04-21T19:22:38.771Z,27.22
2019-04-21T19:25:11.500Z,49.60
2019-04-21T19:27:42.167Z,190.88
2019-04-21T19:30:23.556Z,321.65
2019-04-21T19:32:41.662Z,296.90
2019-04-21T19:35:00.322Z,260.05
2019-04-21T19:37:33.613Z,218.10
2019-04-21T19:40:10.531Z,258.93
2019-04-21T19:42:42.105Z,331.85
2019-04-21T19:45:17.569Z,247.70
2019-04-21T19:47:52.696Z,123.92
2019-04-21T19:50:33.595Z,79.27
2019-04-21T19:52:48.634Z,63.45
2019-04-21T19:55:09.736Z,65.83
2019-04-21T19:57:39.330Z,59.53
2019-04-21T20:00:10.113Z,60.83
2019-04-21T20:02:40.529Z,60.98
2019-04-21T20:05:15.390Z,67.17
2019-04-21T20:08:01.568Z,63.52
2019-04-21T20:10:32.815Z,50.67
2019-04-21T20:13:06.401Z,55.78
2019-04-21T20:15:35.881Z,53.05
2019-04-21T20:17:58.581Z,55.83
2019-04-21T20:20:17.178Z,47.60
2019-04-21T20:25:20.894Z,45.65
2019-04-21T20:27:55.432Z,39.83
2019-04-21T20:30:40.485Z,37.50
2019-04-21T20:33:19.761Z,35.43
2019-04-21T20:35:46.839Z,31.30
2019-04-21T20:38:10.774Z,38.38
2019-04-21T20:40:35.856Z,35.58
2019-04-21T20:43:23.955Z,36.40
2019-04-21T20:45:47.325Z,30.40
2019-04-21T20:48:10.863Z,33.35
2019-04-21T20:50:44.739Z,31.33
2019-04-21T20:53:14.956Z,51.28
2019-04-21T20:55:48.394Z,83.35
2019-04-21T20:58:15.077Z,78.15
2019-04-21T21:01:08.170Z,112.37
2019-04-21T21:03:24.678Z,116.10
2019-04-21T21:05:49.489Z,130.22
2019-04-21T21:08:31.427Z,149.07
2019-04-21T21:10:53.487Z,160.05
2019-04-21T21:13:33.394Z,208.47
2019-04-21T21:16:10.806Z,329.63
2019-04-21T21:18:48.215Z,264.95
2019-04-21T21:21:03.325Z,201.85
2019-04-21T21:23:36.275Z,284.92
2019-04-21T21:26:01.885Z,203.42
2019-04-21T21:28:32.650Z,100.02
2019-04-21T21:31:11.754Z,69.05
2019-04-21T21:33:35.485Z,57.75
2019-04-21T21:36:06.654Z,58.73
2019-04-21T21:38:40.593Z,85.92
2019-04-21T21:40:59.879Z,144.82
2019-04-21T21:43:25.046Z,112.55
2019-04-21T21:45:57.892Z,122.67
2019-04-21T21:48:38.243Z,75.70
2019-04-21T21:51:08.138Z,86.78
2019-04-21T21:53:31.733Z,55.15
2019-04-21T21:55:58.805Z,39.70
2019-04-21T21:58:36.460Z,34.20
2019-04-21T22:01:04.193Z,32.23
2019-04-21T22:03:36.730Z,29.67
2019-04-21T22:06:07.863Z,26.35
2019-04-21T22:08:34.378Z,27.60
2019-04-21T22:11:05.308Z,38.80
2019-04-21T22:13:43.604Z,59.15
2019-04-21T22:16:10.373Z,54.58
2019-04-21T22:19:02.219Z,46.10
2019-04-21T22:21:18.191Z,38.88
2019-04-21T22:24:05.404Z,31.70
2019-04-21T22:26:29.663Z,30.02
2019-04-21T22:29:19.369Z,29.95
2019-04-21T22:31:52.753Z,32.87
2019-04-21T22:34:27.721Z,28.50
2019-04-21T22:37:01.515Z,31.23
2019-04-21T22:39:42.075Z,32.05
2019-04-21T22:42:01.718Z,33.50
2019-04-21T22:44:24.764Z,32.08
2019-04-21T22:47:02.843Z,33.85
2019-04-21T22:49:26.483Z,35.43
2019-04-21T22:51:57.329Z,36.95
2019-04-21T22:54:35.483Z,34.40
2019-04-21T22:57:05.243Z,35.50
2019-04-21T22:59:30.537Z,33.33
2019-04-21T23:02:01.505Z,33.08
2019-04-21T23:04:35.884Z,32.83
2019-04-21T23:07:07.475Z,38.33
2019-04-21T23:09:33.243Z,31.35
2019-04-21T23:12:03.325Z,30.37
2019-04-21T23:14:45.429Z,38.40
2019-04-21T23:17:29.780Z,31.33
2019-04-21T23:19:53.834Z,53.70
2019-04-21T23:22:24.829Z,36.77
2019-04-21T23:24:59.213Z,43.83
2019-04-21T23:27:20.573Z,38.08
2019-04-21T23:30:00.219Z,47.45
2019-04-21T23:32:25.717Z,36.90
2019-04-21T23:34:43.807Z,33.30
2019-04-21T23:37:19.524Z,30.23
2019-04-21T23:39:45.400Z,31.35
2019-04-21T23:42:20.458Z,31.15
2019-04-21T23:44:51.458Z,30.72
2019-04-21T23:47:29.199Z,29.80
2019-04-21T23:49:56.631Z,28.67
2019-04-21T23:52:19.840Z,23.95
2019-04-21T23:54:49.464Z,23.57
2019-04-21T23:57:28.546Z,25.95
2019-04-21T23:59:55.111Z,24.67
